Zeus — V2OR — position and weather

sailwx.info

Track history (hours):
 
Tides and Currents Weather Stations Pressure Air Temp Water Temp Dewpoint Dewpoint Depression Visibility Wind Speed Wind Dir Waves Ship Positions

Zeus

Last reported at 2014-Oct-04 21:12 UTC. Time now 2014-Oct-22 09:38 UTC.
Position N 35°51' W 012°48'.
Warning: this ship's position is 17 days out of date.

Length 90 m; draft 4.6 m.

Type: Cargo ship. MMSI: 304011025.

Date/timePositionNaut miles runAvg speedWind from/ knotsBaromVisibWave heightAir tempDewpointWater temp
2014-Oct-04 21:12N 35°51' W 012°48'15 9.2
2014-Oct-04 19:32N 36°02' W 012°34'19 8.9
2014-Oct-04 17:23N 36°16' W 012°18'89 9.0
2014-Oct-04 07:33N 37°19' W 011°01'10 9.5
2014-Oct-04 06:27N 37°27' W 010°52'8 9.0
2014-Oct-04 05:32N 37°33' W 010°45'9 8.7
2014-Oct-04 04:30N 37°39' W 010°36'9 8.7
2014-Oct-04 03:31N 37°45' W 010°29'12 8.6
2014-Oct-04 02:06N 37°54' W 010°18'6 8.6
2014-Oct-04 01:26N 37°58' W 010°13'8 8.9
2014-Oct-04 00:32N 38°03' W 010°06'9 9.2
2014-Oct-03 23:33N 38°10' W 009°57'9 9.0
2014-Oct-03 22:32N 38°16' W 009°49'9 9.2
2014-Oct-03 21:33N 38°23' W 009°41'9 9.5
2014-Oct-03 20:33N 38°30' W 009°33'10 9.4
2014-Oct-03 19:27N 38°37' W 009°23'8 8.7
2014-Oct-03 18:33N 38°41' W 009°15'3 3.1
2014-Oct-03 17:33N 38°41' W 009°11'0 0.0
2014-Oct-03 16:33N 38°41' W 009°11'0 0.0
2014-Oct-03 15:33N 38°41' W 009°11'0 0.0
2014-Oct-03 14:33N 38°41' W 009°11'0 0.0
2014-Oct-03 13:33N 38°41' W 009°11'0 0.0
2014-Oct-03 12:33N 38°41' W 009°11'2 2.0
2014-Oct-03 11:33N 38°41' W 009°14'0 0.5
2014-Oct-03 10:33N 38°40' W 009°14'0 0.0
2014-Oct-03 09:33N 38°40' W 009°14'0 0.0
2014-Oct-03 08:33N 38°40' W 009°14'0 0.0
2014-Oct-03 07:33N 38°40' W 009°14'0 0.0
2014-Oct-03 06:33N 38°40' W 009°14'0 0.0
2014-Oct-03 05:33N 38°40' W 009°14'0 0.0
2014-Oct-03 04:33N 38°40' W 009°14'0 0.0
2014-Oct-03 03:33N 38°40' W 009°14'0 0.0
2014-Oct-03 02:33N 38°40' W 009°14'0 0.0
2014-Oct-03 01:33N 38°40' W 009°14'0 0.0
2014-Oct-03 00:33N 38°40' W 009°14'0 0.0
2014-Oct-02 23:33N 38°40' W 009°14'0 0.0
2014-Oct-02 22:33N 38°41' W 009°14'5 5.2
2014-Oct-02 21:34N 38°39' W 009°21'  
2014-Sep-28 20:33N 48°59' W 005°29'105 9.5
2014-Sep-28 09:33N 49°53' W 003°10'128 9.8
2014-Sep-27 20:29N 50°32' W 000°00'9 9.8
2014-Sep-27 19:34N 50°35' E 000°13'1111.0
2014-Sep-27 18:33N 50°38' E 000°30'1111.3
2014-Sep-27 17:33N 50°44' E 000°45'1110.5
2014-Sep-27 16:33N 50°50' E 000°59'10 9.4
2014-Sep-27 15:30N 50°56' E 001°11'8 8.0
2014-Sep-27 14:29N 51°01' E 001°21'7 7.1
2014-Sep-27 13:33N 51°05' E 001°29'8 7.9
2014-Sep-27 12:33N 51°10' E 001°39'9 9.4
2014-Sep-27 11:34N 51°18' E 001°48'1211.5
2014-Sep-27 10:34N 51°28' E 001°56'1211.6
2014-Sep-27 09:34N 51°38' E 002°06'1211.6
2014-Sep-27 08:33N 51°48' E 002°15'1110.7
2014-Sep-27 07:33N 51°58' E 002°23'10 9.6
2014-Sep-27 06:31N 52°06' E 002°31'10 8.7
2014-Sep-27 05:22N 52°15' E 002°39'9 8.1
2014-Sep-27 04:12N 52°23' E 002°46'5 8.1
2014-Sep-27 03:33N 52°28' E 002°50'388 8.6
2014-Sep-25 06:21N 58°48' E 005°06'7 8.6
2014-Sep-25 05:33N 58°55' E 005°07'9 8.8
2014-Sep-25 04:33N 59°04' E 005°11'8 7.7
2014-Sep-25 03:33N 59°10' E 005°20'10 9.7
2014-Sep-25 02:33N 59°19' E 005°19'9 9.5
2014-Sep-25 01:34N 59°28' E 005°13'  
Track history (hours):
 
Tides and Currents Weather Stations Pressure Air Temp Water Temp Dewpoint Dewpoint Depression Visibility Wind Speed Wind Dir Waves Ship Positions

Zeus

Last reported at 2014-Oct-04 21:12 UTC. Time now 2014-Oct-22 09:38 UTC.
Position N 35°51' W 012°48'.
Warning: this ship's position is 17 days out of date.

Length 90 m; draft 4.6 m.

Type: Cargo ship. MMSI: 304011025.

Date/timePositionNaut miles runAvg speedWind from/ knotsBaromVisibWave heightAir tempDewpointWater temp
2014-Oct-04 21:12N 35°51' W 012°48'15 9.2
2014-Oct-04 19:32N 36°02' W 012°34'19 8.9
2014-Oct-04 17:23N 36°16' W 012°18'89 9.0
2014-Oct-04 07:33N 37°19' W 011°01'10 9.5
2014-Oct-04 06:27N 37°27' W 010°52'8 9.0
2014-Oct-04 05:32N 37°33' W 010°45'9 8.7
2014-Oct-04 04:30N 37°39' W 010°36'9 8.7
2014-Oct-04 03:31N 37°45' W 010°29'12 8.6
2014-Oct-04 02:06N 37°54' W 010°18'6 8.6
2014-Oct-04 01:26N 37°58' W 010°13'8 8.9
2014-Oct-04 00:32N 38°03' W 010°06'9 9.2
2014-Oct-03 23:33N 38°10' W 009°57'9 9.0
2014-Oct-03 22:32N 38°16' W 009°49'9 9.2
2014-Oct-03 21:33N 38°23' W 009°41'9 9.5
2014-Oct-03 20:33N 38°30' W 009°33'10 9.4
2014-Oct-03 19:27N 38°37' W 009°23'8 8.7
2014-Oct-03 18:33N 38°41' W 009°15'3 3.1
2014-Oct-03 17:33N 38°41' W 009°11'0 0.0
2014-Oct-03 16:33N 38°41' W 009°11'0 0.0
2014-Oct-03 15:33N 38°41' W 009°11'0 0.0
2014-Oct-03 14:33N 38°41' W 009°11'0 0.0
2014-Oct-03 13:33N 38°41' W 009°11'0 0.0
2014-Oct-03 12:33N 38°41' W 009°11'2 2.0
2014-Oct-03 11:33N 38°41' W 009°14'0 0.5
2014-Oct-03 10:33N 38°40' W 009°14'0 0.0
2014-Oct-03 09:33N 38°40' W 009°14'0 0.0
2014-Oct-03 08:33N 38°40' W 009°14'0 0.0
2014-Oct-03 07:33N 38°40' W 009°14'0 0.0
2014-Oct-03 06:33N 38°40' W 009°14'0 0.0
2014-Oct-03 05:33N 38°40' W 009°14'0 0.0
2014-Oct-03 04:33N 38°40' W 009°14'0 0.0
2014-Oct-03 03:33N 38°40' W 009°14'0 0.0
2014-Oct-03 02:33N 38°40' W 009°14'0 0.0
2014-Oct-03 01:33N 38°40' W 009°14'0 0.0
2014-Oct-03 00:33N 38°40' W 009°14'0 0.0
2014-Oct-02 23:33N 38°40' W 009°14'0 0.0
2014-Oct-02 22:33N 38°41' W 009°14'5 5.2
2014-Oct-02 21:34N 38°39' W 009°21'  
2014-Sep-28 20:33N 48°59' W 005°29'105 9.5
2014-Sep-28 09:33N 49°53' W 003°10'128 9.8
2014-Sep-27 20:29N 50°32' W 000°00'9 9.8
2014-Sep-27 19:34N 50°35' E 000°13'1111.0
2014-Sep-27 18:33N 50°38' E 000°30'1111.3
2014-Sep-27 17:33N 50°44' E 000°45'1110.5
2014-Sep-27 16:33N 50°50' E 000°59'10 9.4
2014-Sep-27 15:30N 50°56' E 001°11'8 8.0
2014-Sep-27 14:29N 51°01' E 001°21'7 7.1
2014-Sep-27 13:33N 51°05' E 001°29'8 7.9
2014-Sep-27 12:33N 51°10' E 001°39'9 9.4
2014-Sep-27 11:34N 51°18' E 001°48'1211.5
2014-Sep-27 10:34N 51°28' E 001°56'1211.6
2014-Sep-27 09:34N 51°38' E 002°06'1211.6
2014-Sep-27 08:33N 51°48' E 002°15'1110.7
2014-Sep-27 07:33N 51°58' E 002°23'10 9.6
2014-Sep-27 06:31N 52°06' E 002°31'10 8.7
2014-Sep-27 05:22N 52°15' E 002°39'9 8.1
2014-Sep-27 04:12N 52°23' E 002°46'5 8.1
2014-Sep-27 03:33N 52°28' E 002°50'388 8.6
2014-Sep-25 06:21N 58°48' E 005°06'7 8.6
2014-Sep-25 05:33N 58°55' E 005°07'9 8.8
2014-Sep-25 04:33N 59°04' E 005°11'8 7.7
2014-Sep-25 03:33N 59°10' E 005°20'10 9.7
2014-Sep-25 02:33N 59°19' E 005°19'9 9.5
2014-Sep-25 01:34N 59°28' E 005°13'  

Dump ship's entire track history